createdAt,value
2017-07-11T00:00:07.980Z,36.10
2017-07-11T00:02:35.764Z,36.00
2017-07-11T00:05:03.479Z,35.70
2017-07-11T00:07:31.203Z,36.20
2017-07-11T00:09:58.991Z,36.20
2017-07-11T00:12:26.787Z,36.20
2017-07-11T00:14:54.575Z,36.10
2017-07-11T00:17:22.353Z,36.30
2017-07-11T00:19:50.079Z,36.40
2017-07-11T00:22:17.855Z,36.30
2017-07-11T00:24:45.576Z,36.30
2017-07-11T00:27:13.293Z,36.80
2017-07-11T00:29:41.851Z,37.00
2017-07-11T00:32:09.622Z,37.00
2017-07-11T00:34:38.259Z,36.90
2017-07-11T00:37:05.998Z,36.80
2017-07-11T00:39:33.704Z,36.70
2017-07-11T00:42:01.428Z,36.80
2017-07-11T00:44:29.974Z,37.30
2017-07-11T00:46:57.687Z,37.30
2017-07-11T00:49:25.431Z,37.30
2017-07-11T00:51:53.170Z,37.30
2017-07-11T00:54:20.933Z,37.30
2017-07-11T00:56:48.649Z,37.10
2017-07-11T00:59:17.137Z,37.20
2017-07-11T01:01:44.904Z,37.20
2017-07-11T01:04:12.688Z,37.40
2017-07-11T01:06:40.413Z,37.60
2017-07-11T01:09:08.191Z,37.80
2017-07-11T01:11:35.906Z,37.30
2017-07-11T01:14:03.700Z,37.40
2017-07-11T01:16:31.490Z,37.80
2017-07-11T01:18:59.260Z,37.90
2017-07-11T01:21:26.988Z,37.90
2017-07-11T01:23:54.772Z,37.60
2017-07-11T01:26:22.510Z,37.90
2017-07-11T01:28:50.300Z,37.70
2017-07-11T01:31:18.024Z,38.00
2017-07-11T01:33:45.747Z,38.10
2017-07-11T01:36:13.549Z,38.70
2017-07-11T01:38:41.272Z,39.00
2017-07-11T01:41:08.979Z,39.20
2017-07-11T01:43:36.702Z,39.00
2017-07-11T01:46:04.486Z,39.20
2017-07-11T01:48:32.259Z,40.00
2017-07-11T01:50:59.987Z,39.40
2017-07-11T01:53:27.716Z,39.50
2017-07-11T01:55:55.450Z,39.80
2017-07-11T01:58:23.241Z,40.50
2017-07-11T02:00:50.990Z,41.00
2017-07-11T02:03:18.727Z,41.50
2017-07-11T02:05:46.572Z,42.00
2017-07-11T02:08:14.355Z,42.10
2017-07-11T02:10:42.082Z,42.50
2017-07-11T02:13:10.822Z,42.60
2017-07-11T02:15:38.539Z,42.90
2017-07-11T02:18:06.282Z,42.90
2017-07-11T02:20:34.048Z,42.90
2017-07-11T02:23:01.786Z,43.20
2017-07-11T02:25:29.561Z,43.20
2017-07-11T02:27:57.343Z,43.20
2017-07-11T02:30:25.058Z,43.20
2017-07-11T02:32:52.826Z,43.20
2017-07-11T02:35:20.559Z,43.20
2017-07-11T02:37:49.112Z,43.40
2017-07-11T02:40:16.852Z,43.30
2017-07-11T02:42:44.564Z,43.30
2017-07-11T02:45:12.340Z,43.50
2017-07-11T02:47:40.806Z,43.50
2017-07-11T02:50:08.530Z,43.60
2017-07-11T02:52:36.244Z,43.80
2017-07-11T02:55:03.989Z,44.00
2017-07-11T02:57:31.698Z,44.10
2017-07-11T02:59:59.446Z,44.40
2017-07-11T03:02:27.981Z,44.50
2017-07-11T03:04:55.748Z,44.40
2017-07-11T03:07:23.520Z,44.40
2017-07-11T03:09:51.246Z,44.90
2017-07-11T03:12:19.000Z,45.00
2017-07-11T03:14:46.776Z,44.80
2017-07-11T03:17:14.537Z,44.90
2017-07-11T03:19:42.347Z,45.00
2017-07-11T03:22:10.138Z,44.90
2017-07-11T03:24:37.859Z,45.10
2017-07-11T03:27:05.647Z,45.20
2017-07-11T03:29:33.358Z,45.30
2017-07-11T03:32:01.156Z,45.10
2017-07-11T03:34:28.927Z,45.30
2017-07-11T03:36:56.688Z,45.50
2017-07-11T03:39:24.413Z,45.80
2017-07-11T03:41:52.162Z,45.80
2017-07-11T03:44:19.880Z,45.60
2017-07-11T03:46:47.671Z,45.70
2017-07-11T03:49:15.450Z,45.80
2017-07-11T03:51:43.236Z,45.90
2017-07-11T03:54:11.019Z,46.00
2017-07-11T03:56:38.731Z,46.00
2017-07-11T03:59:06.458Z,46.10
2017-07-11T04:01:34.186Z,46.40
2017-07-11T04:04:01.899Z,46.40
2017-07-11T04:06:29.628Z,46.40
2017-07-11T04:08:57.392Z,46.80
2017-07-11T04:11:25.116Z,46.70
2017-07-11T04:13:52.896Z,46.70
2017-07-11T04:16:20.626Z,46.60
2017-07-11T04:18:48.404Z,46.40
2017-07-11T04:21:16.120Z,46.70
2017-07-11T04:23:43.918Z,46.50
2017-07-11T04:26:11.699Z,46.80
2017-07-11T04:28:39.433Z,46.40
2017-07-11T04:31:07.143Z,46.80
2017-07-11T04:33:35.630Z,47.20
2017-07-11T04:36:03.407Z,47.10
2017-07-11T04:38:31.197Z,47.00
2017-07-11T04:40:58.981Z,46.90
2017-07-11T04:43:26.729Z,47.20
2017-07-11T04:45:54.457Z,46.80
2017-07-11T04:48:22.231Z,47.30
2017-07-11T04:50:55.391Z,47.20
2017-07-11T04:53:28.942Z,47.50
2017-07-11T04:55:56.712Z,47.40
2017-07-11T04:58:24.428Z,47.50
2017-07-11T05:00:52.143Z,47.30
2017-07-11T05:03:25.986Z,47.50
2017-07-11T05:05:59.298Z,47.20
2017-07-11T05:08:27.112Z,47.80
2017-07-11T05:10:54.884Z,47.10
2017-07-11T05:13:22.699Z,46.90
2017-07-11T05:15:50.481Z,46.80
2017-07-11T05:19:14.663Z,46.80
2017-07-11T05:21:42.426Z,47.50
2017-07-11T05:24:10.132Z,47.00
2017-07-11T05:26:39.718Z,47.10
2017-07-11T05:29:08.790Z,47.00
2017-07-11T05:31:36.655Z,47.10
2017-07-11T05:34:04.376Z,47.10
2017-07-11T05:36:32.850Z,45.80
2017-07-11T05:39:00.660Z,45.70
2017-07-11T05:41:28.468Z,46.20
2017-07-11T05:43:56.290Z,46.30
2017-07-11T05:46:24.073Z,45.80
2017-07-11T05:48:51.890Z,45.40
2017-07-11T05:51:19.677Z,45.90
2017-07-11T05:53:47.471Z,46.00
2017-07-11T05:56:15.187Z,46.10
2017-07-11T05:58:43.729Z,45.60
2017-07-11T06:01:11.541Z,46.20
2017-07-11T06:03:39.260Z,45.30
2017-07-11T06:06:07.045Z,45.10
2017-07-11T06:08:34.839Z,45.30
2017-07-11T06:11:02.644Z,45.40
2017-07-11T06:13:30.439Z,45.20
2017-07-11T06:15:58.216Z,45.50
2017-07-11T06:18:26.089Z,45.50
2017-07-11T06:20:53.916Z,44.90
2017-07-11T06:23:21.644Z,45.10
2017-07-11T06:25:49.422Z,45.30
2017-07-11T06:28:17.162Z,45.30
2017-07-11T06:30:44.887Z,45.50
2017-07-11T06:33:12.674Z,45.30
2017-07-11T06:35:40.413Z,45.00
2017-07-11T06:38:08.129Z,45.10
2017-07-11T06:40:36.631Z,46.30
2017-07-11T06:43:04.382Z,45.70
2017-07-11T06:45:32.091Z,45.00
2017-07-11T06:47:59.814Z,45.40
2017-07-11T06:50:28.316Z,46.40
2017-07-11T06:52:56.568Z,46.30
2017-07-11T06:55:24.296Z,45.90
2017-07-11T06:57:52.087Z,45.10
2017-07-11T07:00:19.872Z,45.00
2017-07-11T07:02:50.687Z,45.30
2017-07-11T07:05:18.446Z,45.30
2017-07-11T07:07:46.187Z,46.00
2017-07-11T07:10:13.973Z,45.10
2017-07-11T07:12:41.772Z,45.10
2017-07-11T07:15:09.562Z,45.10
2017-07-11T07:17:38.043Z,45.60
2017-07-11T07:20:05.784Z,45.50
2017-07-11T07:22:33.560Z,45.20
2017-07-11T07:25:01.296Z,45.40
2017-07-11T07:27:29.195Z,45.70
2017-07-11T07:29:56.959Z,45.40
2017-07-11T07:32:24.718Z,45.80
2017-07-11T07:34:53.213Z,44.90
2017-07-11T07:37:20.982Z,45.10
2017-07-11T07:39:48.764Z,45.40
2017-07-11T07:42:17.311Z,46.10
2017-07-11T07:44:45.073Z,46.70
2017-07-11T07:47:12.867Z,46.50
2017-07-11T07:49:40.592Z,46.30
2017-07-11T07:52:08.356Z,44.80
2017-07-11T07:54:36.166Z,45.90
2017-07-11T07:57:03.931Z,45.70
2017-07-11T07:59:31.694Z,45.70
2017-07-11T08:01:59.476Z,45.70
2017-07-11T08:04:27.264Z,45.50
2017-07-11T08:06:55.048Z,45.60
2017-07-11T08:09:22.767Z,45.60
2017-07-11T08:11:50.492Z,46.10
2017-07-11T08:14:18.220Z,46.10
2017-07-11T08:16:45.952Z,45.90
2017-07-11T08:19:13.666Z,46.00
2017-07-11T08:21:41.458Z,46.10
2017-07-11T08:24:09.184Z,45.80
2017-07-11T08:26:37.747Z,46.00
2017-07-11T08:29:05.524Z,45.90
2017-07-11T08:31:33.266Z,45.90
2017-07-11T08:34:01.034Z,45.80
2017-07-11T08:36:28.811Z,46.20
2017-07-11T08:38:56.554Z,46.00
2017-07-11T08:41:24.289Z,46.00
2017-07-11T08:43:52.030Z,45.90
2017-07-11T08:46:19.757Z,45.90
2017-07-11T08:48:47.471Z,45.60
2017-07-11T08:51:15.962Z,45.70
2017-07-11T08:53:43.708Z,45.70
2017-07-11T08:56:11.477Z,45.60
2017-07-11T08:58:39.286Z,45.70
2017-07-11T09:01:07.057Z,45.80
2017-07-11T09:03:34.764Z,45.60
2017-07-11T09:06:02.540Z,45.30
2017-07-11T09:08:30.282Z,46.00
2017-07-11T09:10:57.988Z,45.90
2017-07-11T09:13:25.706Z,46.40
2017-07-11T09:15:53.501Z,46.10
2017-07-11T09:18:21.228Z,45.90
2017-07-11T09:20:48.962Z,46.40
2017-07-11T09:23:16.691Z,46.20
2017-07-11T09:25:44.418Z,46.10
2017-07-11T09:28:12.135Z,46.10
2017-07-11T09:30:39.879Z,46.10
2017-07-11T09:33:07.591Z,46.10
2017-07-11T09:35:35.297Z,45.90
2017-07-11T09:38:03.092Z,45.90
2017-07-11T09:40:30.870Z,45.60
2017-07-11T09:42:59.425Z,45.40
2017-07-11T09:45:27.207Z,45.40
2017-07-11T09:47:54.930Z,45.20
2017-07-11T09:50:22.687Z,46.00
2017-07-11T09:52:50.470Z,45.60
2017-07-11T09:55:18.174Z,45.20
2017-07-11T09:57:45.958Z,45.00
2017-07-11T10:00:13.757Z,45.00
2017-07-11T10:02:41.493Z,45.50
2017-07-11T10:05:09.209Z,45.40
2017-07-11T10:07:36.954Z,45.50
2017-07-11T10:10:04.733Z,45.90
2017-07-11T10:12:32.469Z,43.80
2017-07-11T10:15:00.946Z,44.80
2017-07-11T10:17:28.732Z,44.80
2017-07-11T10:19:56.436Z,44.20
2017-07-11T10:22:24.166Z,44.10
2017-07-11T10:24:51.882Z,43.10
2017-07-11T10:27:20.075Z,43.60
2017-07-11T10:29:47.815Z,44.30
2017-07-11T10:32:15.546Z,43.90
2017-07-11T10:34:43.337Z,44.20
2017-07-11T10:37:11.121Z,43.90
2017-07-11T10:39:38.906Z,43.90
2017-07-11T10:42:06.680Z,44.10
2017-07-11T10:44:34.398Z,44.00
2017-07-11T10:47:02.132Z,43.90
2017-07-11T10:49:29.839Z,44.00
2017-07-11T10:51:57.622Z,43.90
2017-07-11T10:54:25.415Z,43.70
2017-07-11T10:56:53.919Z,44.00
2017-07-11T10:59:21.692Z,44.00
2017-07-11T11:01:49.489Z,43.80
2017-07-11T11:04:17.243Z,43.20
2017-07-11T11:06:45.025Z,43.60
2017-07-11T11:09:12.791Z,43.40
2017-07-11T11:11:40.532Z,43.60
2017-07-11T11:14:08.303Z,43.80
2017-07-11T11:16:36.015Z,44.20
2017-07-11T11:19:03.759Z,43.70
2017-07-11T11:21:31.471Z,43.40
2017-07-11T11:23:59.954Z,43.10
2017-07-11T11:26:27.668Z,43.10
2017-07-11T11:28:55.434Z,43.30
2017-07-11T11:31:23.214Z,43.40
2017-07-11T11:33:51.985Z,43.60
2017-07-11T11:36:19.831Z,43.20
2017-07-11T11:38:47.629Z,42.90
2017-07-11T11:41:15.425Z,43.20
2017-07-11T11:43:43.197Z,43.00
2017-07-11T11:46:10.911Z,43.20
2017-07-11T11:48:39.650Z,43.40
2017-07-11T11:51:08.372Z,43.60
2017-07-11T11:53:37.004Z,43.60
2017-07-11T11:56:05.551Z,43.70
2017-07-11T11:58:33.322Z,44.40
2017-07-11T12:01:01.081Z,44.20
2017-07-11T12:03:28.819Z,44.20
2017-07-11T12:05:56.579Z,44.70
2017-07-11T12:08:24.310Z,44.70
2017-07-11T12:10:52.090Z,44.90
2017-07-11T12:13:19.807Z,44.70
2017-07-11T12:15:47.588Z,44.70
2017-07-11T12:18:15.301Z,44.70
2017-07-11T12:20:43.085Z,44.70
2017-07-11T12:23:10.838Z,44.70
2017-07-11T12:25:38.608Z,45.20
2017-07-11T12:28:06.381Z,44.90
2017-07-11T12:33:06.832Z,45.00
2017-07-11T12:35:34.563Z,45.20
2017-07-11T12:38:02.278Z,45.30
2017-07-11T12:40:30.051Z,45.40
2017-07-11T12:42:57.819Z,47.10
2017-07-11T12:45:25.598Z,46.60
2017-07-11T12:47:53.588Z,54.10
2017-07-11T12:50:21.383Z,48.90
2017-07-11T12:52:49.825Z,49.90
2017-07-11T12:55:17.544Z,64.10
2017-07-11T12:57:48.104Z,66.30
2017-07-11T13:00:15.936Z,67.50
2017-07-11T13:02:43.659Z,55.50
2017-07-11T13:05:11.444Z,62.50
2017-07-11T13:07:39.189Z,59.00
2017-07-11T13:10:06.960Z,56.90
2017-07-11T13:12:34.700Z,51.10
2017-07-11T13:15:02.422Z,51.20
2017-07-11T13:17:30.746Z,49.70
2017-07-11T13:20:01.851Z,52.20
2017-07-11T13:22:30.685Z,54.70
2017-07-11T13:24:58.535Z,54.70
2017-07-11T13:27:26.325Z,54.10
2017-07-11T13:29:54.816Z,50.00
2017-07-11T13:32:22.624Z,49.90
2017-07-11T13:34:50.344Z,49.20
2017-07-11T13:37:18.092Z,49.00
2017-07-11T13:39:45.853Z,48.90
2017-07-11T13:42:13.551Z,48.90
2017-07-11T13:44:42.026Z,48.80
2017-07-11T13:47:09.792Z,48.70
2017-07-11T13:49:37.561Z,48.70
2017-07-11T13:52:05.354Z,48.70
2017-07-11T13:54:33.111Z,48.60
2017-07-11T13:57:00.834Z,48.50
2017-07-11T13:59:28.573Z,48.40
2017-07-11T14:01:56.283Z,48.60
2017-07-11T14:04:24.826Z,48.10
2017-07-11T14:06:52.549Z,48.20
2017-07-11T14:09:20.289Z,48.50
2017-07-11T14:11:48.069Z,48.40
2017-07-11T14:14:15.831Z,48.40
2017-07-11T14:16:43.610Z,48.30
2017-07-11T14:19:11.427Z,48.30
2017-07-11T14:21:39.148Z,48.10
2017-07-11T14:24:06.921Z,48.10
2017-07-11T14:26:34.747Z,48.10
2017-07-11T14:29:02.595Z,47.80
2017-07-11T14:31:30.580Z,47.80
2017-07-11T14:33:58.332Z,47.30
2017-07-11T14:36:26.069Z,47.20
2017-07-11T14:38:53.800Z,46.10
2017-07-11T14:41:21.528Z,47.20
2017-07-11T14:43:49.304Z,47.30
2017-07-11T14:46:17.049Z,46.90
2017-07-11T14:48:46.538Z,46.90
2017-07-11T14:51:14.339Z,47.10
2017-07-11T14:53:43.865Z,46.80
2017-07-11T14:56:12.918Z,46.50
2017-07-11T14:58:43.007Z,46.40
2017-07-11T15:01:10.970Z,46.70
2017-07-11T15:03:38.713Z,47.00
2017-07-11T15:06:06.550Z,46.90
2017-07-11T15:08:37.986Z,48.10
2017-07-11T15:11:05.846Z,48.90
2017-07-11T15:13:34.808Z,49.00
2017-07-11T15:16:45.107Z,53.20
2017-07-11T15:19:12.988Z,56.60
2017-07-11T15:21:42.031Z,58.30
2017-07-11T15:39:49.025Z,61.30
2017-07-11T15:42:17.689Z,60.00
2017-07-11T15:44:45.525Z,65.10
2017-07-11T15:47:13.329Z,67.30
2017-07-11T15:49:48.962Z,68.70
2017-07-11T15:52:16.751Z,67.90
2017-07-11T15:54:44.515Z,66.90
2017-07-11T15:57:12.306Z,68.30
2017-07-11T15:59:42.027Z,68.50
2017-07-11T16:05:54.584Z,70.10
2017-07-11T16:08:22.912Z,66.50
2017-07-11T16:14:00.610Z,68.60
2017-07-11T16:16:28.971Z,68.60
2017-07-11T16:18:56.786Z,66.60
2017-07-11T16:21:24.509Z,64.50
2017-07-11T16:23:52.310Z,64.00
2017-07-11T16:26:20.118Z,59.60
2017-07-11T16:28:47.844Z,61.50
2017-07-11T16:31:15.587Z,64.80
2017-07-11T16:33:43.304Z,55.40
2017-07-11T16:36:11.035Z,58.80
2017-07-11T16:38:38.802Z,55.20
2017-07-11T16:41:06.539Z,56.60
2017-07-11T16:43:34.279Z,56.60
2017-07-11T16:46:02.133Z,55.10
2017-07-11T16:48:29.895Z,58.00
2017-07-11T16:50:57.692Z,57.80
2017-07-11T16:53:25.565Z,58.70
2017-07-11T16:55:53.954Z,61.10
2017-07-11T16:58:21.816Z,60.40
2017-07-11T17:00:49.614Z,59.70
2017-07-11T17:03:17.473Z,61.80
2017-07-11T17:05:46.000Z,62.00
2017-07-11T17:08:14.130Z,62.50
2017-07-11T17:10:41.948Z,60.80
2017-07-11T17:13:09.712Z,62.40
2017-07-11T17:15:37.494Z,62.10
2017-07-11T17:18:05.277Z,62.20
2017-07-11T17:20:33.049Z,63.00
2017-07-11T17:23:00.775Z,62.70
2017-07-11T17:25:28.505Z,61.70
2017-07-11T17:27:56.337Z,62.90
2017-07-11T17:30:24.177Z,64.10
2017-07-11T17:32:51.945Z,64.40
2017-07-11T17:35:20.756Z,64.20
2017-07-11T17:37:48.571Z,63.60
2017-07-11T17:40:16.339Z,63.00
2017-07-11T17:42:44.134Z,63.60
2017-07-11T17:45:11.876Z,64.80
2017-07-11T17:47:39.609Z,62.00
2017-07-11T17:50:07.364Z,63.80
2017-07-11T17:52:35.139Z,64.00
2017-07-11T17:55:02.918Z,62.30
2017-07-11T17:57:30.759Z,62.80
2017-07-11T17:59:58.608Z,65.10
2017-07-11T18:02:26.359Z,64.00
2017-07-11T18:04:57.263Z,64.40
2017-07-11T18:07:25.869Z,64.50
2017-07-11T18:09:55.123Z,63.70
2017-07-11T18:12:22.902Z,63.60
2017-07-11T18:14:57.165Z,65.30
2017-07-11T18:17:24.977Z,63.70
2017-07-11T18:19:52.764Z,64.60
2017-07-11T18:22:21.155Z,64.50
2017-07-11T18:24:55.059Z,64.40
2017-07-11T18:27:32.027Z,64.50
2017-07-11T18:30:03.346Z,64.50
2017-07-11T18:34:53.883Z,62.80
2017-07-11T18:37:29.799Z,63.90
2017-07-11T18:40:06.955Z,64.40
2017-07-11T18:42:35.271Z,64.40
2017-07-11T18:45:10.636Z,64.80
2017-07-11T18:47:47.064Z,63.00
2017-07-11T18:50:14.793Z,62.80
2017-07-11T18:52:42.879Z,62.90
2017-07-11T18:55:10.762Z,63.40
2017-07-11T18:57:38.503Z,63.00
2017-07-11T19:00:07.185Z,62.90
2017-07-11T19:02:34.975Z,64.10
2017-07-11T19:05:02.790Z,65.40
2017-07-11T19:07:30.724Z,64.40
2017-07-11T19:09:58.979Z,63.70
2017-07-11T19:12:26.779Z,64.20
2017-07-11T19:14:55.634Z,63.90
2017-07-11T19:17:23.805Z,65.20
2017-07-11T19:19:52.442Z,64.20
2017-07-11T19:22:22.495Z,63.90
2017-07-11T19:24:51.428Z,64.00
2017-07-11T19:27:21.095Z,65.30
2017-07-11T19:29:49.034Z,66.00
2017-07-11T19:32:17.323Z,64.30
2017-07-11T19:34:45.187Z,64.40
2017-07-11T19:37:13.322Z,63.40
2017-07-11T19:39:41.606Z,63.40
2017-07-11T19:42:09.538Z,63.60
2017-07-11T19:44:39.178Z,62.80
2017-07-11T19:47:07.395Z,62.80
2017-07-11T19:49:35.224Z,61.30
2017-07-11T19:52:03.805Z,61.60
2017-07-11T19:54:33.646Z,62.30
2017-07-11T19:57:01.501Z,62.30
2017-07-11T19:59:29.610Z,62.30
2017-07-11T20:01:58.305Z,61.00
2017-07-11T20:04:27.276Z,62.00
2017-07-11T20:06:55.709Z,61.40
2017-07-11T20:09:23.493Z,61.20
2017-07-11T20:11:52.420Z,61.50
2017-07-11T20:14:21.296Z,62.20
2017-07-11T20:16:49.663Z,61.90
2017-07-11T20:19:18.102Z,61.00
2017-07-11T20:21:46.151Z,62.50
2017-07-11T20:24:14.846Z,63.30
2017-07-11T20:26:44.859Z,63.30
2017-07-11T20:29:17.836Z,62.90
2017-07-11T20:31:46.634Z,62.50
2017-07-11T20:34:14.578Z,61.80
2017-07-11T20:36:45.633Z,61.20
2017-07-11T20:39:13.429Z,61.50
2017-07-11T20:41:41.218Z,61.50
2017-07-11T20:44:08.992Z,61.30
2017-07-11T20:46:36.713Z,61.80
2017-07-11T20:49:04.510Z,60.80
2017-07-11T20:51:32.282Z,62.30
2017-07-11T20:54:00.051Z,62.40
2017-07-11T20:56:27.787Z,61.50
2017-07-11T20:58:55.518Z,61.50
2017-07-11T21:01:23.316Z,61.70
2017-07-11T21:03:51.107Z,62.00
2017-07-11T21:06:18.916Z,62.20
2017-07-11T21:08:46.619Z,61.60
2017-07-11T21:11:14.336Z,62.10
2017-07-11T21:13:42.836Z,62.30
2017-07-11T21:16:10.618Z,62.30
2017-07-11T21:18:38.350Z,62.30
2017-07-11T21:21:06.062Z,62.00
2017-07-11T21:23:33.765Z,62.10
2017-07-11T21:26:01.522Z,62.60
2017-07-11T21:28:29.297Z,62.30
2017-07-11T21:30:57.013Z,61.50
2017-07-11T21:33:24.731Z,62.80
2017-07-11T21:35:52.453Z,63.00
2017-07-11T21:38:20.168Z,62.80
2017-07-11T21:40:47.955Z,63.60
2017-07-11T21:43:15.669Z,63.70
2017-07-11T21:45:43.476Z,64.00
2017-07-11T21:48:11.259Z,63.10
2017-07-11T21:50:38.987Z,63.60
2017-07-11T21:53:06.790Z,63.50
2017-07-11T21:55:34.581Z,63.50
2017-07-11T21:58:02.347Z,63.50
2017-07-11T22:00:30.156Z,62.60
2017-07-11T22:02:57.905Z,61.80
2017-07-11T22:05:25.636Z,62.30
2017-07-11T22:07:53.398Z,62.30
2017-07-11T22:10:21.181Z,62.10
2017-07-11T22:12:48.911Z,61.40
2017-07-11T22:15:16.628Z,61.30
2017-07-11T22:17:44.386Z,61.00
2017-07-11T22:20:12.097Z,61.20
2017-07-11T22:22:40.638Z,61.80
2017-07-11T22:25:08.380Z,60.90
2017-07-11T22:27:36.092Z,60.80
2017-07-11T22:30:03.882Z,60.20
2017-07-11T22:32:31.663Z,60.80
2017-07-11T22:34:59.382Z,61.60
2017-07-11T22:37:27.108Z,61.20
2017-07-11T22:39:54.843Z,61.50
2017-07-11T22:42:22.635Z,61.50
2017-07-11T22:44:50.437Z,61.20
2017-07-11T22:47:18.235Z,61.60
2017-07-11T22:49:46.017Z,61.10
2017-07-11T22:52:13.809Z,62.30
2017-07-11T22:54:41.550Z,62.30
2017-07-11T22:57:09.274Z,61.20
2017-07-11T22:59:37.052Z,61.10
2017-07-11T23:02:04.847Z,60.90
2017-07-11T23:04:32.579Z,60.70
2017-07-11T23:07:00.351Z,60.50
2017-07-11T23:09:28.168Z,60.40
2017-07-11T23:11:55.946Z,60.80
2017-07-11T23:14:23.664Z,59.80
2017-07-11T23:16:51.459Z,60.40
2017-07-11T23:19:19.184Z,60.40
2017-07-11T23:21:46.979Z,61.30
2017-07-11T23:24:14.716Z,61.50
2017-07-11T23:26:42.497Z,60.50
2017-07-11T23:29:10.222Z,61.00
2017-07-11T23:31:38.010Z,61.20
2017-07-11T23:34:05.727Z,61.60
2017-07-11T23:36:34.199Z,61.30
2017-07-11T23:39:02.014Z,61.20
2017-07-11T23:41:29.783Z,62.50
2017-07-11T23:43:57.501Z,61.60
2017-07-11T23:46:25.258Z,61.60
2017-07-11T23:48:52.972Z,62.60
2017-07-11T23:51:20.704Z,61.50
2017-07-11T23:53:49.201Z,62.70
2017-07-11T23:56:16.998Z,62.60
2017-07-11T23:58:44.731Z,63.00
